sensor_id;sensor_type;location;lat;lon;timestamp;temperature;humidity
23685;DHT22;12020;51.384;6.908;2024-03-17T00:00:11;6.00;99.90
23685;DHT22;12020;51.384;6.908;2024-03-17T00:02:42;6.00;99.90
23685;DHT22;12020;51.384;6.908;2024-03-17T00:05:11;6.00;99.90
23685;DHT22;12020;51.384;6.908;2024-03-17T00:07:37;6.00;99.90
23685;DHT22;12020;51.384;6.908;2024-03-17T00:10:03;6.00;99.90
23685;DHT22;12020;51.384;6.908;2024-03-17T00:12:33;6.00;99.90
23685;DHT22;12020;51.384;6.908;2024-03-17T00:15:05;6.00;99.90
23685;DHT22;12020;51.384;6.908;2024-03-17T00:17:33;5.90;99.90
23685;DHT22;12020;51.384;6.908;2024-03-17T00:20:08;6.00;99.90
23685;DHT22;12020;51.384;6.908;2024-03-17T00:22:48;5.90;99.90
23685;DHT22;12020;51.384;6.908;2024-03-17T00:25:17;5.90;99.90
23685;DHT22;12020;51.384;6.908;2024-03-17T00:27:52;6.00;99.90
23685;DHT22;12020;51.384;6.908;2024-03-17T00:30:21;5.90;99.90
23685;DHT22;12020;51.384;6.908;2024-03-17T00:32:47;5.90;99.90
23685;DHT22;12020;51.384;6.908;2024-03-17T00:35:13;5.80;99.90
23685;DHT22;12020;51.384;6.908;2024-03-17T00:37:50;5.90;99.90
23685;DHT22;12020;51.384;6.908;2024-03-17T00:40:22;5.80;99.90
23685;DHT22;12020;51.384;6.908;2024-03-17T00:42:48;5.80;99.90
23685;DHT22;12020;51.384;6.908;2024-03-17T00:45:15;5.80;99.90
23685;DHT22;12020;51.384;6.908;2024-03-17T00:47:41;5.70;99.90
23685;DHT22;12020;51.384;6.908;2024-03-17T00:50:09;5.70;99.90
23685;DHT22;12020;51.384;6.908;2024-03-17T00:52:41;5.70;99.90
23685;DHT22;12020;51.384;6.908;2024-03-17T00:55:08;5.80;99.90
23685;DHT22;12020;51.384;6.908;2024-03-17T00:57:36;5.80;99.90
23685;DHT22;12020;51.384;6.908;2024-03-17T01:00:04;5.90;99.90
23685;DHT22;12020;51.384;6.908;2024-03-17T01:02:30;5.80;99.90
23685;DHT22;12020;51.384;6.908;2024-03-17T01:04:56;5.90;99.90
23685;DHT22;12020;51.384;6.908;2024-03-17T01:07:24;5.80;99.90
23685;DHT22;12020;51.384;6.908;2024-03-17T01:09:53;5.80;99.90
23685;DHT22;12020;51.384;6.908;2024-03-17T01:12:20;5.80;99.90
23685;DHT22;12020;51.384;6.908;2024-03-17T01:14:49;5.70;99.90
23685;DHT22;12020;51.384;6.908;2024-03-17T01:17:20;5.70;99.90
23685;DHT22;12020;51.384;6.908;2024-03-17T01:19:52;5.70;99.90
23685;DHT22;12020;51.384;6.908;2024-03-17T01:22:20;5.70;99.90
23685;DHT22;12020;51.384;6.908;2024-03-17T01:24:47;5.60;99.90
23685;DHT22;12020;51.384;6.908;2024-03-17T01:27:14;5.60;99.90
23685;DHT22;12020;51.384;6.908;2024-03-17T01:29:51;5.60;99.90
23685;DHT22;12020;51.384;6.908;2024-03-17T01:32:17;5.60;99.90
23685;DHT22;12020;51.384;6.908;2024-03-17T01:34:45;5.50;99.90
23685;DHT22;12020;51.384;6.908;2024-03-17T01:37:11;5.60;99.90
23685;DHT22;12020;51.384;6.908;2024-03-17T01:39:39;5.50;99.90
23685;DHT22;12020;51.384;6.908;2024-03-17T01:42:05;5.60;99.90
23685;DHT22;12020;51.384;6.908;2024-03-17T01:44:31;5.50;99.90
23685;DHT22;12020;51.384;6.908;2024-03-17T01:46:58;5.50;99.90
23685;DHT22;12020;51.384;6.908;2024-03-17T01:49:26;5.50;99.90
23685;DHT22;12020;51.384;6.908;2024-03-17T01:51:53;5.50;99.90
23685;DHT22;12020;51.384;6.908;2024-03-17T01:54:19;5.60;99.90
23685;DHT22;12020;51.384;6.908;2024-03-17T01:56:51;5.40;99.90
23685;DHT22;12020;51.384;6.908;2024-03-17T01:59:18;5.40;99.90
23685;DHT22;12020;51.384;6.908;2024-03-17T02:01:44;5.50;99.90
23685;DHT22;12020;51.384;6.908;2024-03-17T02:04:11;5.50;99.90
23685;DHT22;12020;51.384;6.908;2024-03-17T02:06:37;5.40;99.90
23685;DHT22;12020;51.384;6.908;2024-03-17T02:09:04;5.40;99.90
23685;DHT22;12020;51.384;6.908;2024-03-17T02:11:31;5.40;99.90
23685;DHT22;12020;51.384;6.908;2024-03-17T02:13:59;5.30;99.90
23685;DHT22;12020;51.384;6.908;2024-03-17T02:16:26;5.40;99.90
23685;DHT22;12020;51.384;6.908;2024-03-17T02:18:56;5.40;99.90
23685;DHT22;12020;51.384;6.908;2024-03-17T02:21:26;5.30;99.90
23685;DHT22;12020;51.384;6.908;2024-03-17T02:23:59;5.30;99.90
23685;DHT22;12020;51.384;6.908;2024-03-17T02:26:28;5.30;99.90
23685;DHT22;12020;51.384;6.908;2024-03-17T02:28:55;5.30;99.90
23685;DHT22;12020;51.384;6.908;2024-03-17T02:31:21;5.30;99.90
23685;DHT22;12020;51.384;6.908;2024-03-17T02:33:49;5.30;99.90
23685;DHT22;12020;51.384;6.908;2024-03-17T02:36:15;5.20;99.90
23685;DHT22;12020;51.384;6.908;2024-03-17T02:38:43;5.20;99.90
23685;DHT22;12020;51.384;6.908;2024-03-17T02:41:27;5.20;99.90
23685;DHT22;12020;51.384;6.908;2024-03-17T02:43:58;5.20;99.90
23685;DHT22;12020;51.384;6.908;2024-03-17T02:46:24;5.20;99.90
23685;DHT22;12020;51.384;6.908;2024-03-17T02:48:52;5.20;99.90
23685;DHT22;12020;51.384;6.908;2024-03-17T02:51:21;5.10;99.90
23685;DHT22;12020;51.384;6.908;2024-03-17T02:53:49;5.20;99.90
23685;DHT22;12020;51.384;6.908;2024-03-17T02:56:18;5.20;99.90
23685;DHT22;12020;51.384;6.908;2024-03-17T02:58:53;5.20;99.90
23685;DHT22;12020;51.384;6.908;2024-03-17T03:01:20;5.20;99.90
23685;DHT22;12020;51.384;6.908;2024-03-17T03:03:46;5.30;99.90
23685;DHT22;12020;51.384;6.908;2024-03-17T03:06:14;5.20;99.90
23685;DHT22;12020;51.384;6.908;2024-03-17T03:08:41;5.20;99.90
23685;DHT22;12020;51.384;6.908;2024-03-17T03:11:10;5.30;99.90
23685;DHT22;12020;51.384;6.908;2024-03-17T03:13:41;5.20;99.90
23685;DHT22;12020;51.384;6.908;2024-03-17T03:16:08;5.20;99.90
23685;DHT22;12020;51.384;6.908;2024-03-17T03:18:35;5.20;99.90
23685;DHT22;12020;51.384;6.908;2024-03-17T03:21:03;5.20;99.90
23685;DHT22;12020;51.384;6.908;2024-03-17T03:23:32;5.20;99.90
23685;DHT22;12020;51.384;6.908;2024-03-17T03:26:02;5.40;99.90
23685;DHT22;12020;51.384;6.908;2024-03-17T03:28:32;5.30;99.90
23685;DHT22;12020;51.384;6.908;2024-03-17T03:31:02;5.30;99.90
23685;DHT22;12020;51.384;6.908;2024-03-17T03:33:29;5.40;99.90
23685;DHT22;12020;51.384;6.908;2024-03-17T03:35:59;5.50;99.90
23685;DHT22;12020;51.384;6.908;2024-03-17T03:38:26;5.50;99.90
23685;DHT22;12020;51.384;6.908;2024-03-17T03:40:55;5.50;99.90
23685;DHT22;12020;51.384;6.908;2024-03-17T03:43:22;5.50;99.90
23685;DHT22;12020;51.384;6.908;2024-03-17T03:45:49;5.50;99.90
23685;DHT22;12020;51.384;6.908;2024-03-17T03:48:23;5.60;99.90
23685;DHT22;12020;51.384;6.908;2024-03-17T03:50:50;5.60;99.90
23685;DHT22;12020;51.384;6.908;2024-03-17T03:53:17;5.70;99.90
23685;DHT22;12020;51.384;6.908;2024-03-17T03:55:43;5.70;99.90
23685;DHT22;12020;51.384;6.908;2024-03-17T03:58:16;5.70;99.90
23685;DHT22;12020;51.384;6.908;2024-03-17T04:00:42;5.80;99.90
23685;DHT22;12020;51.384;6.908;2024-03-17T04:03:08;5.70;99.90
23685;DHT22;12020;51.384;6.908;2024-03-17T04:05:37;5.80;99.90
23685;DHT22;12020;51.384;6.908;2024-03-17T04:08:04;5.70;99.90
23685;DHT22;12020;51.384;6.908;2024-03-17T04:10:30;5.80;99.90
23685;DHT22;12020;51.384;6.908;2024-03-17T04:12:56;5.70;99.90
23685;DHT22;12020;51.384;6.908;2024-03-17T04:15:23;5.80;99.90
23685;DHT22;12020;51.384;6.908;2024-03-17T04:17:51;5.80;99.90
23685;DHT22;12020;51.384;6.908;2024-03-17T04:20:19;5.80;99.90
23685;DHT22;12020;51.384;6.908;2024-03-17T04:22:47;5.80;99.90
23685;DHT22;12020;51.384;6.908;2024-03-17T04:25:17;5.90;99.90
23685;DHT22;12020;51.384;6.908;2024-03-17T04:27:45;5.80;99.90
23685;DHT22;12020;51.384;6.908;2024-03-17T04:30:11;5.80;99.90
23685;DHT22;12020;51.384;6.908;2024-03-17T04:32:37;5.80;99.90
23685;DHT22;12020;51.384;6.908;2024-03-17T04:35:04;5.80;99.90
23685;DHT22;12020;51.384;6.908;2024-03-17T04:37:33;5.90;99.90
23685;DHT22;12020;51.384;6.908;2024-03-17T04:40:06;5.90;99.90
23685;DHT22;12020;51.384;6.908;2024-03-17T04:42:37;5.90;99.90
23685;DHT22;12020;51.384;6.908;2024-03-17T04:45:06;5.80;99.90
23685;DHT22;12020;51.384;6.908;2024-03-17T04:47:33;5.90;99.90
23685;DHT22;12020;51.384;6.908;2024-03-17T04:49:59;5.90;99.90
23685;DHT22;12020;51.384;6.908;2024-03-17T04:52:28;5.90;99.90
23685;DHT22;12020;51.384;6.908;2024-03-17T04:54:56;5.90;99.90
23685;DHT22;12020;51.384;6.908;2024-03-17T04:57:22;5.90;99.90
23685;DHT22;12020;51.384;6.908;2024-03-17T04:59:48;5.90;99.90
23685;DHT22;12020;51.384;6.908;2024-03-17T05:02:15;6.10;99.90
23685;DHT22;12020;51.384;6.908;2024-03-17T05:04:40;6.10;99.90
23685;DHT22;12020;51.384;6.908;2024-03-17T05:07:08;5.90;99.90
23685;DHT22;12020;51.384;6.908;2024-03-17T05:09:35;5.90;99.90
23685;DHT22;12020;51.384;6.908;2024-03-17T05:12:02;5.90;99.90
23685;DHT22;12020;51.384;6.908;2024-03-17T05:14:28;5.90;99.90
23685;DHT22;12020;51.384;6.908;2024-03-17T05:16:56;5.90;99.90
23685;DHT22;12020;51.384;6.908;2024-03-17T05:19:22;5.90;99.90
23685;DHT22;12020;51.384;6.908;2024-03-17T05:21:49;5.90;99.90
23685;DHT22;12020;51.384;6.908;2024-03-17T05:24:15;5.90;99.90
23685;DHT22;12020;51.384;6.908;2024-03-17T05:26:43;5.90;99.90
23685;DHT22;12020;51.384;6.908;2024-03-17T05:29:08;5.90;99.90
23685;DHT22;12020;51.384;6.908;2024-03-17T05:31:35;5.90;99.90
23685;DHT22;12020;51.384;6.908;2024-03-17T05:34:02;5.90;99.90
23685;DHT22;12020;51.384;6.908;2024-03-17T05:36:28;5.80;99.90
23685;DHT22;12020;51.384;6.908;2024-03-17T05:38:59;5.90;99.90
23685;DHT22;12020;51.384;6.908;2024-03-17T05:41:25;6.00;99.90
23685;DHT22;12020;51.384;6.908;2024-03-17T05:43:52;5.90;99.90
23685;DHT22;12020;51.384;6.908;2024-03-17T05:46:18;5.90;99.90
23685;DHT22;12020;51.384;6.908;2024-03-17T05:48:44;6.10;99.90
23685;DHT22;12020;51.384;6.908;2024-03-17T05:51:12;5.90;99.90
23685;DHT22;12020;51.384;6.908;2024-03-17T05:53:40;6.00;99.90
23685;DHT22;12020;51.384;6.908;2024-03-17T05:56:06;6.10;99.90
23685;DHT22;12020;51.384;6.908;2024-03-17T05:58:37;6.00;99.90
23685;DHT22;12020;51.384;6.908;2024-03-17T06:01:04;6.00;99.90
23685;DHT22;12020;51.384;6.908;2024-03-17T06:03:30;6.00;99.90
23685;DHT22;12020;51.384;6.908;2024-03-17T06:05:58;6.10;99.90
23685;DHT22;12020;51.384;6.908;2024-03-17T06:08:25;6.10;99.90
23685;DHT22;12020;51.384;6.908;2024-03-17T06:10:52;6.00;99.90
23685;DHT22;12020;51.384;6.908;2024-03-17T06:13:19;6.00;99.90
23685;DHT22;12020;51.384;6.908;2024-03-17T06:15:46;6.20;99.90
23685;DHT22;12020;51.384;6.908;2024-03-17T06:18:13;6.20;99.90
23685;DHT22;12020;51.384;6.908;2024-03-17T06:20:41;6.20;99.90
23685;DHT22;12020;51.384;6.908;2024-03-17T06:23:23;6.20;99.90
23685;DHT22;12020;51.384;6.908;2024-03-17T06:25:50;6.20;99.90
23685;DHT22;12020;51.384;6.908;2024-03-17T06:28:17;6.30;99.90
23685;DHT22;12020;51.384;6.908;2024-03-17T06:30:43;6.30;99.90
23685;DHT22;12020;51.384;6.908;2024-03-17T06:33:16;6.40;99.90
23685;DHT22;12020;51.384;6.908;2024-03-17T06:35:46;6.30;99.90
23685;DHT22;12020;51.384;6.908;2024-03-17T06:38:15;6.40;99.90
23685;DHT22;12020;51.384;6.908;2024-03-17T06:40:41;6.40;99.90
23685;DHT22;12020;51.384;6.908;2024-03-17T06:43:07;6.50;99.90
23685;DHT22;12020;51.384;6.908;2024-03-17T06:45:33;6.50;99.90
23685;DHT22;12020;51.384;6.908;2024-03-17T06:47:59;6.50;99.90
23685;DHT22;12020;51.384;6.908;2024-03-17T06:50:24;6.60;99.90
23685;DHT22;12020;51.384;6.908;2024-03-17T06:52:50;6.60;99.90
23685;DHT22;12020;51.384;6.908;2024-03-17T06:55:17;6.70;99.90
23685;DHT22;12020;51.384;6.908;2024-03-17T06:57:44;6.80;99.90
23685;DHT22;12020;51.384;6.908;2024-03-17T07:00:13;6.80;99.90
23685;DHT22;12020;51.384;6.908;2024-03-17T07:02:43;6.90;99.90
23685;DHT22;12020;51.384;6.908;2024-03-17T07:05:12;6.90;99.90
23685;DHT22;12020;51.384;6.908;2024-03-17T07:07:42;7.10;99.90
23685;DHT22;12020;51.384;6.908;2024-03-17T07:10:08;7.10;99.90
23685;DHT22;12020;51.384;6.908;2024-03-17T07:12:34;7.20;99.90
23685;DHT22;12020;51.384;6.908;2024-03-17T07:14:59;7.30;99.90
23685;DHT22;12020;51.384;6.908;2024-03-17T07:17:25;7.40;99.90
23685;DHT22;12020;51.384;6.908;2024-03-17T07:19:51;7.40;99.90
23685;DHT22;12020;51.384;6.908;2024-03-17T07:22:16;7.60;99.90
23685;DHT22;12020;51.384;6.908;2024-03-17T07:24:43;7.70;99.90
23685;DHT22;12020;51.384;6.908;2024-03-17T07:27:10;7.80;99.90
23685;DHT22;12020;51.384;6.908;2024-03-17T07:29:39;7.90;99.90
23685;DHT22;12020;51.384;6.908;2024-03-17T07:32:05;8.00;99.90
23685;DHT22;12020;51.384;6.908;2024-03-17T07:34:31;8.00;99.90
23685;DHT22;12020;51.384;6.908;2024-03-17T07:36:58;8.10;99.90
23685;DHT22;12020;51.384;6.908;2024-03-17T07:39:31;8.10;99.90
23685;DHT22;12020;51.384;6.908;2024-03-17T07:41:58;8.30;99.90
23685;DHT22;12020;51.384;6.908;2024-03-17T07:44:25;8.30;99.90
23685;DHT22;12020;51.384;6.908;2024-03-17T07:46:50;8.40;99.90
23685;DHT22;12020;51.384;6.908;2024-03-17T07:49:16;8.30;99.90
23685;DHT22;12020;51.384;6.908;2024-03-17T07:51:42;8.40;99.90
23685;DHT22;12020;51.384;6.908;2024-03-17T07:54:09;8.60;99.90
23685;DHT22;12020;51.384;6.908;2024-03-17T07:56:35;8.60;99.90
23685;DHT22;12020;51.384;6.908;2024-03-17T07:59:00;8.90;99.90
23685;DHT22;12020;51.384;6.908;2024-03-17T08:01:26;9.00;99.90
23685;DHT22;12020;51.384;6.908;2024-03-17T08:03:52;9.20;99.90
23685;DHT22;12020;51.384;6.908;2024-03-17T08:06:21;9.30;99.90
23685;DHT22;12020;51.384;6.908;2024-03-17T08:08:47;9.40;99.90
23685;DHT22;12020;51.384;6.908;2024-03-17T08:11:13;9.50;99.90
23685;DHT22;12020;51.384;6.908;2024-03-17T08:13:39;9.60;99.90
23685;DHT22;12020;51.384;6.908;2024-03-17T08:16:06;9.60;99.90
23685;DHT22;12020;51.384;6.908;2024-03-17T08:18:33;9.70;99.90
23685;DHT22;12020;51.384;6.908;2024-03-17T08:21:00;9.80;99.90
23685;DHT22;12020;51.384;6.908;2024-03-17T08:23:29;9.80;99.90
23685;DHT22;12020;51.384;6.908;2024-03-17T08:26:00;9.80;99.90
23685;DHT22;12020;51.384;6.908;2024-03-17T08:28:27;9.90;99.90
23685;DHT22;12020;51.384;6.908;2024-03-17T08:31:00;9.80;99.90
23685;DHT22;12020;51.384;6.908;2024-03-17T08:33:27;10.00;99.90
23685;DHT22;12020;51.384;6.908;2024-03-17T08:36:02;10.10;99.90
23685;DHT22;12020;51.384;6.908;2024-03-17T08:38:30;10.30;99.90
23685;DHT22;12020;51.384;6.908;2024-03-17T08:41:02;10.40;99.90
23685;DHT22;12020;51.384;6.908;2024-03-17T08:43:28;10.40;99.90
23685;DHT22;12020;51.384;6.908;2024-03-17T08:45:55;10.40;99.90
23685;DHT22;12020;51.384;6.908;2024-03-17T08:48:24;10.50;99.90
23685;DHT22;12020;51.384;6.908;2024-03-17T08:50:51;10.70;99.90
23685;DHT22;12020;51.384;6.908;2024-03-17T08:53:17;10.90;99.90
23685;DHT22;12020;51.384;6.908;2024-03-17T08:55:43;11.00;99.90
23685;DHT22;12020;51.384;6.908;2024-03-17T08:58:10;11.00;99.90
23685;DHT22;12020;51.384;6.908;2024-03-17T09:00:37;11.10;99.90
23685;DHT22;12020;51.384;6.908;2024-03-17T09:03:03;11.10;99.90
23685;DHT22;12020;51.384;6.908;2024-03-17T09:05:29;11.20;99.90
23685;DHT22;12020;51.384;6.908;2024-03-17T09:07:55;11.20;99.90
23685;DHT22;12020;51.384;6.908;2024-03-17T09:10:21;11.20;99.90
23685;DHT22;12020;51.384;6.908;2024-03-17T09:12:47;11.20;99.90
23685;DHT22;12020;51.384;6.908;2024-03-17T09:15:13;11.20;99.90
23685;DHT22;12020;51.384;6.908;2024-03-17T09:17:40;11.20;99.90
23685;DHT22;12020;51.384;6.908;2024-03-17T09:20:06;11.20;99.90
23685;DHT22;12020;51.384;6.908;2024-03-17T09:22:40;11.20;99.90
23685;DHT22;12020;51.384;6.908;2024-03-17T09:25:09;11.30;99.90
23685;DHT22;12020;51.384;6.908;2024-03-17T09:27:35;11.30;99.90
23685;DHT22;12020;51.384;6.908;2024-03-17T09:30:07;11.40;99.90
23685;DHT22;12020;51.384;6.908;2024-03-17T09:32:36;11.30;99.90
23685;DHT22;12020;51.384;6.908;2024-03-17T09:35:02;11.30;99.90
23685;DHT22;12020;51.384;6.908;2024-03-17T09:37:31;11.30;99.90
23685;DHT22;12020;51.384;6.908;2024-03-17T09:40:00;11.30;99.90
23685;DHT22;12020;51.384;6.908;2024-03-17T09:42:27;11.30;99.90
23685;DHT22;12020;51.384;6.908;2024-03-17T09:44:53;11.30;99.90
23685;DHT22;12020;51.384;6.908;2024-03-17T09:47:23;11.40;99.90
23685;DHT22;12020;51.384;6.908;2024-03-17T09:49:51;11.30;99.90
23685;DHT22;12020;51.384;6.908;2024-03-17T09:52:24;11.40;99.90
23685;DHT22;12020;51.384;6.908;2024-03-17T09:55:08;11.40;99.90
23685;DHT22;12020;51.384;6.908;2024-03-17T09:57:39;11.40;99.90
23685;DHT22;12020;51.384;6.908;2024-03-17T10:00:11;11.30;99.90
23685;DHT22;12020;51.384;6.908;2024-03-17T10:02:44;11.40;99.90
23685;DHT22;12020;51.384;6.908;2024-03-17T10:05:23;11.40;99.90
23685;DHT22;12020;51.384;6.908;2024-03-17T10:07:49;11.40;99.90
23685;DHT22;12020;51.384;6.908;2024-03-17T10:10:16;11.40;99.90
23685;DHT22;12020;51.384;6.908;2024-03-17T10:12:47;11.40;99.90
23685;DHT22;12020;51.384;6.908;2024-03-17T10:15:14;11.40;99.90
23685;DHT22;12020;51.384;6.908;2024-03-17T10:17:39;11.40;99.90
23685;DHT22;12020;51.384;6.908;2024-03-17T10:20:19;11.50;99.90
23685;DHT22;12020;51.384;6.908;2024-03-17T10:23:07;11.50;99.90
23685;DHT22;12020;51.384;6.908;2024-03-17T10:25:39;11.70;99.90
23685;DHT22;12020;51.384;6.908;2024-03-17T10:28:12;11.70;99.90
23685;DHT22;12020;51.384;6.908;2024-03-17T10:30:39;11.70;99.90
23685;DHT22;12020;51.384;6.908;2024-03-17T10:33:06;11.80;99.90
23685;DHT22;12020;51.384;6.908;2024-03-17T10:35:37;11.80;99.90
23685;DHT22;12020;51.384;6.908;2024-03-17T10:38:09;11.80;99.90
23685;DHT22;12020;51.384;6.908;2024-03-17T10:40:35;11.80;99.90
23685;DHT22;12020;51.384;6.908;2024-03-17T10:43:05;11.90;99.90
23685;DHT22;12020;51.384;6.908;2024-03-17T10:45:33;11.90;99.90
23685;DHT22;12020;51.384;6.908;2024-03-17T10:48:07;12.00;99.90
23685;DHT22;12020;51.384;6.908;2024-03-17T10:50:37;12.00;99.90
23685;DHT22;12020;51.384;6.908;2024-03-17T10:53:07;12.00;99.90
23685;DHT22;12020;51.384;6.908;2024-03-17T10:55:44;12.10;99.90
23685;DHT22;12020;51.384;6.908;2024-03-17T10:58:33;12.10;99.90
23685;DHT22;12020;51.384;6.908;2024-03-17T11:01:01;12.20;99.90
23685;DHT22;12020;51.384;6.908;2024-03-17T11:03:34;12.20;99.90
23685;DHT22;12020;51.384;6.908;2024-03-17T11:06:02;12.20;99.90
23685;DHT22;12020;51.384;6.908;2024-03-17T11:08:31;12.30;99.90
23685;DHT22;12020;51.384;6.908;2024-03-17T11:10:58;12.30;99.90
23685;DHT22;12020;51.384;6.908;2024-03-17T11:13:28;12.30;99.90
23685;DHT22;12020;51.384;6.908;2024-03-17T11:15:58;12.30;99.90
23685;DHT22;12020;51.384;6.908;2024-03-17T11:21:04;12.30;99.90
23685;DHT22;12020;51.384;6.908;2024-03-17T11:23:34;12.40;99.90
23685;DHT22;12020;51.384;6.908;2024-03-17T11:26:03;12.40;99.90
23685;DHT22;12020;51.384;6.908;2024-03-17T11:31:43;12.50;99.90
23685;DHT22;12020;51.384;6.908;2024-03-17T11:34:32;12.60;99.90
23685;DHT22;12020;51.384;6.908;2024-03-17T11:36:59;12.60;99.90
23685;DHT22;12020;51.384;6.908;2024-03-17T11:39:51;12.70;99.90
23685;DHT22;12020;51.384;6.908;2024-03-17T11:42:22;12.80;99.90
23685;DHT22;12020;51.384;6.908;2024-03-17T11:45:16;12.90;99.90
23685;DHT22;12020;51.384;6.908;2024-03-17T11:47:48;13.00;99.90
23685;DHT22;12020;51.384;6.908;2024-03-17T11:50:15;13.10;99.90
23685;DHT22;12020;51.384;6.908;2024-03-17T11:52:43;13.20;99.90
23685;DHT22;12020;51.384;6.908;2024-03-17T11:55:18;13.30;99.90
23685;DHT22;12020;51.384;6.908;2024-03-17T11:57:46;13.20;99.90
23685;DHT22;12020;51.384;6.908;2024-03-17T12:00:22;13.30;99.90
23685;DHT22;12020;51.384;6.908;2024-03-17T12:02:50;13.30;99.90
23685;DHT22;12020;51.384;6.908;2024-03-17T12:05:17;13.30;99.90
23685;DHT22;12020;51.384;6.908;2024-03-17T12:07:44;13.30;99.90
23685;DHT22;12020;51.384;6.908;2024-03-17T12:10:11;13.30;99.90
23685;DHT22;12020;51.384;6.908;2024-03-17T12:12:40;13.30;99.90
23685;DHT22;12020;51.384;6.908;2024-03-17T12:15:19;13.40;99.90
23685;DHT22;12020;51.384;6.908;2024-03-17T12:17:45;13.40;99.90
23685;DHT22;12020;51.384;6.908;2024-03-17T12:20:18;13.50;99.90
23685;DHT22;12020;51.384;6.908;2024-03-17T12:22:47;13.50;99.90
23685;DHT22;12020;51.384;6.908;2024-03-17T12:25:20;13.50;99.90
23685;DHT22;12020;51.384;6.908;2024-03-17T12:27:46;13.50;99.90
23685;DHT22;12020;51.384;6.908;2024-03-17T12:30:15;13.50;99.90
23685;DHT22;12020;51.384;6.908;2024-03-17T12:32:42;13.50;99.90
23685;DHT22;12020;51.384;6.908;2024-03-17T12:35:15;13.60;99.90
23685;DHT22;12020;51.384;6.908;2024-03-17T12:37:44;13.60;99.90
23685;DHT22;12020;51.384;6.908;2024-03-17T12:40:21;13.70;99.90
23685;DHT22;12020;51.384;6.908;2024-03-17T12:42:49;13.80;99.90
23685;DHT22;12020;51.384;6.908;2024-03-17T12:45:21;13.90;99.90
23685;DHT22;12020;51.384;6.908;2024-03-17T12:47:51;13.90;99.90
23685;DHT22;12020;51.384;6.908;2024-03-17T12:50:19;13.90;99.90
23685;DHT22;12020;51.384;6.908;2024-03-17T12:52:55;14.00;99.90
23685;DHT22;12020;51.384;6.908;2024-03-17T12:55:22;14.00;99.90
23685;DHT22;12020;51.384;6.908;2024-03-17T12:58:08;14.00;99.90
23685;DHT22;12020;51.384;6.908;2024-03-17T13:01:03;14.10;99.90
23685;DHT22;12020;51.384;6.908;2024-03-17T13:03:36;14.10;99.90
23685;DHT22;12020;51.384;6.908;2024-03-17T13:06:03;14.30;99.90
23685;DHT22;12020;51.384;6.908;2024-03-17T13:08:32;14.40;99.90
23685;DHT22;12020;51.384;6.908;2024-03-17T13:11:01;14.40;99.90
23685;DHT22;12020;51.384;6.908;2024-03-17T13:13:29;14.40;99.90
23685;DHT22;12020;51.384;6.908;2024-03-17T13:15:55;14.40;99.90
23685;DHT22;12020;51.384;6.908;2024-03-17T13:18:20;14.40;99.90
23685;DHT22;12020;51.384;6.908;2024-03-17T13:20:49;14.30;99.90
23685;DHT22;12020;51.384;6.908;2024-03-17T13:23:15;14.30;99.90
23685;DHT22;12020;51.384;6.908;2024-03-17T13:25:41;14.30;99.90
23685;DHT22;12020;51.384;6.908;2024-03-17T13:28:09;14.20;99.90
23685;DHT22;12020;51.384;6.908;2024-03-17T13:30:35;14.10;99.90
23685;DHT22;12020;51.384;6.908;2024-03-17T13:33:03;14.10;99.90
23685;DHT22;12020;51.384;6.908;2024-03-17T13:35:35;14.20;99.90
23685;DHT22;12020;51.384;6.908;2024-03-17T13:38:03;14.20;99.90
23685;DHT22;12020;51.384;6.908;2024-03-17T13:40:29;14.20;99.90
23685;DHT22;12020;51.384;6.908;2024-03-17T13:42:56;14.20;99.90
23685;DHT22;12020;51.384;6.908;2024-03-17T13:45:23;14.20;99.90
23685;DHT22;12020;51.384;6.908;2024-03-17T13:47:57;14.20;99.90
23685;DHT22;12020;51.384;6.908;2024-03-17T13:50:23;14.20;99.90
23685;DHT22;12020;51.384;6.908;2024-03-17T13:52:49;14.20;99.90
23685;DHT22;12020;51.384;6.908;2024-03-17T13:55:20;14.20;99.90
23685;DHT22;12020;51.384;6.908;2024-03-17T13:57:47;14.20;99.90
23685;DHT22;12020;51.384;6.908;2024-03-17T14:00:14;14.20;99.90
23685;DHT22;12020;51.384;6.908;2024-03-17T14:02:46;14.20;99.90
23685;DHT22;12020;51.384;6.908;2024-03-17T14:05:13;14.20;99.90
23685;DHT22;12020;51.384;6.908;2024-03-17T14:07:39;14.20;99.90
23685;DHT22;12020;51.384;6.908;2024-03-17T14:10:06;14.20;99.90
23685;DHT22;12020;51.384;6.908;2024-03-17T14:12:34;14.20;99.90
23685;DHT22;12020;51.384;6.908;2024-03-17T14:15:00;14.20;99.90
23685;DHT22;12020;51.384;6.908;2024-03-17T14:17:26;14.20;99.90
23685;DHT22;12020;51.384;6.908;2024-03-17T14:19:52;14.20;99.90
23685;DHT22;12020;51.384;6.908;2024-03-17T14:22:18;14.30;99.90
23685;DHT22;12020;51.384;6.908;2024-03-17T14:24:44;14.20;99.90
23685;DHT22;12020;51.384;6.908;2024-03-17T14:27:12;14.20;99.90
23685;DHT22;12020;51.384;6.908;2024-03-17T14:29:38;14.20;99.90
23685;DHT22;12020;51.384;6.908;2024-03-17T14:32:04;14.20;99.90
23685;DHT22;12020;51.384;6.908;2024-03-17T14:34:30;14.20;99.90
23685;DHT22;12020;51.384;6.908;2024-03-17T14:37:00;14.20;99.90
23685;DHT22;12020;51.384;6.908;2024-03-17T14:39:28;14.20;99.90
23685;DHT22;12020;51.384;6.908;2024-03-17T14:41:54;14.10;99.90
23685;DHT22;12020;51.384;6.908;2024-03-17T14:44:20;14.10;99.90
23685;DHT22;12020;51.384;6.908;2024-03-17T14:46:47;14.20;99.90
23685;DHT22;12020;51.384;6.908;2024-03-17T14:49:13;14.10;99.90
23685;DHT22;12020;51.384;6.908;2024-03-17T14:51:38;14.10;99.90
23685;DHT22;12020;51.384;6.908;2024-03-17T14:54:04;14.10;99.90
23685;DHT22;12020;51.384;6.908;2024-03-17T14:56:32;14.10;99.90
23685;DHT22;12020;51.384;6.908;2024-03-17T14:58:58;14.10;99.90
23685;DHT22;12020;51.384;6.908;2024-03-17T15:01:24;14.10;99.90
23685;DHT22;12020;51.384;6.908;2024-03-17T15:03:49;14.10;99.90
23685;DHT22;12020;51.384;6.908;2024-03-17T15:06:22;14.00;99.90
23685;DHT22;12020;51.384;6.908;2024-03-17T15:08:50;14.10;99.90
23685;DHT22;12020;51.384;6.908;2024-03-17T15:11:16;14.10;99.90
23685;DHT22;12020;51.384;6.908;2024-03-17T15:13:44;14.10;99.90
23685;DHT22;12020;51.384;6.908;2024-03-17T15:16:10;14.10;99.90
23685;DHT22;12020;51.384;6.908;2024-03-17T15:18:37;14.10;99.90
23685;DHT22;12020;51.384;6.908;2024-03-17T15:21:04;14.20;99.90
23685;DHT22;12020;51.384;6.908;2024-03-17T15:23:33;14.20;99.90
23685;DHT22;12020;51.384;6.908;2024-03-17T15:26:03;14.20;99.90
23685;DHT22;12020;51.384;6.908;2024-03-17T15:28:40;14.20;99.90
23685;DHT22;12020;51.384;6.908;2024-03-17T15:31:07;14.20;99.90
23685;DHT22;12020;51.384;6.908;2024-03-17T15:33:38;14.20;99.90
23685;DHT22;12020;51.384;6.908;2024-03-17T15:36:07;14.20;99.90
23685;DHT22;12020;51.384;6.908;2024-03-17T15:38:36;14.20;99.90
23685;DHT22;12020;51.384;6.908;2024-03-17T15:41:08;14.20;99.90
23685;DHT22;12020;51.384;6.908;2024-03-17T15:43:39;14.20;99.90
23685;DHT22;12020;51.384;6.908;2024-03-17T15:46:11;14.20;99.90
23685;DHT22;12020;51.384;6.908;2024-03-17T15:48:39;14.20;99.90
23685;DHT22;12020;51.384;6.908;2024-03-17T15:51:08;14.20;99.90
23685;DHT22;12020;51.384;6.908;2024-03-17T15:53:34;14.30;99.90